sensor_id;sensor_type;location;lat;lon;timestamp;P1;durP1;ratioP1;P2;durP2;ratioP2
19231;SDS011;9750;48.730;10.294;2022-12-05T00:01:29;14.50;;;10.47;;
19231;SDS011;9750;48.730;10.294;2022-12-05T00:07:05;13.53;;;10.27;;
19231;SDS011;9750;48.730;10.294;2022-12-05T00:09:32;12.53;;;9.73;;
19231;SDS011;9750;48.730;10.294;2022-12-05T00:12:00;12.60;;;9.97;;
19231;SDS011;9750;48.730;10.294;2022-12-05T00:14:28;14.80;;;10.50;;
19231;SDS011;9750;48.730;10.294;2022-12-05T00:16:56;13.63;;;10.07;;
19231;SDS011;9750;48.730;10.294;2022-12-05T00:19:23;16.20;;;11.33;;
19231;SDS011;9750;48.730;10.294;2022-12-05T00:21:50;12.13;;;9.73;;
19231;SDS011;9750;48.730;10.294;2022-12-05T00:24:17;14.60;;;10.67;;
19231;SDS011;9750;48.730;10.294;2022-12-05T00:26:45;13.57;;;9.67;;
19231;SDS011;9750;48.730;10.294;2022-12-05T00:29:13;12.57;;;9.87;;
19231;SDS011;9750;48.730;10.294;2022-12-05T00:31:41;11.03;;;9.00;;
19231;SDS011;9750;48.730;10.294;2022-12-05T00:37:06;13.43;;;10.53;;
19231;SDS011;9750;48.730;10.294;2022-12-05T00:39:33;13.73;;;10.83;;
19231;SDS011;9750;48.730;10.294;2022-12-05T00:42:01;13.33;;;10.97;;
19231;SDS011;9750;48.730;10.294;2022-12-05T00:44:28;12.03;;;9.77;;
19231;SDS011;9750;48.730;10.294;2022-12-05T00:46:57;12.70;;;9.57;;
19231;SDS011;9750;48.730;10.294;2022-12-05T00:49:24;11.07;;;9.57;;
19231;SDS011;9750;48.730;10.294;2022-12-05T00:51:52;10.27;;;8.63;;
19231;SDS011;9750;48.730;10.294;2022-12-05T00:54:19;11.50;;;9.13;;
19231;SDS011;9750;48.730;10.294;2022-12-05T00:56:46;13.47;;;9.87;;
19231;SDS011;9750;48.730;10.294;2022-12-05T00:59:17;11.03;;;9.37;;
19231;SDS011;9750;48.730;10.294;2022-12-05T01:01:46;12.30;;;9.87;;
19231;SDS011;9750;48.730;10.294;2022-12-05T01:04:17;12.10;;;10.23;;
19231;SDS011;9750;48.730;10.294;2022-12-05T01:06:46;10.67;;;8.90;;
19231;SDS011;9750;48.730;10.294;2022-12-05T01:09:15;11.90;;;9.70;;
19231;SDS011;9750;48.730;10.294;2022-12-05T01:11:44;12.63;;;9.90;;
19231;SDS011;9750;48.730;10.294;2022-12-05T01:17:22;13.90;;;10.60;;
19231;SDS011;9750;48.730;10.294;2022-12-05T01:19:51;11.40;;;9.00;;
19231;SDS011;9750;48.730;10.294;2022-12-05T01:22:18;15.10;;;10.57;;
19231;SDS011;9750;48.730;10.294;2022-12-05T01:24:46;13.00;;;9.27;;
19231;SDS011;9750;48.730;10.294;2022-12-05T01:27:13;10.27;;;9.17;;
19231;SDS011;9750;48.730;10.294;2022-12-05T01:29:40;15.33;;;11.37;;
19231;SDS011;9750;48.730;10.294;2022-12-05T01:32:08;13.03;;;9.93;;
19231;SDS011;9750;48.730;10.294;2022-12-05T01:34:35;13.67;;;10.33;;
19231;SDS011;9750;48.730;10.294;2022-12-05T01:37:04;13.00;;;10.20;;
19231;SDS011;9750;48.730;10.294;2022-12-05T01:39:31;14.27;;;10.00;;
19231;SDS011;9750;48.730;10.294;2022-12-05T01:41:59;15.87;;;11.00;;
19231;SDS011;9750;48.730;10.294;2022-12-05T01:47:27;15.00;;;10.80;;
19231;SDS011;9750;48.730;10.294;2022-12-05T01:49:56;14.03;;;10.13;;
19231;SDS011;9750;48.730;10.294;2022-12-05T01:52:26;14.43;;;10.50;;
19231;SDS011;9750;48.730;10.294;2022-12-05T01:54:59;15.77;;;10.83;;
19231;SDS011;9750;48.730;10.294;2022-12-05T01:57:30;13.90;;;10.43;;
19231;SDS011;9750;48.730;10.294;2022-12-05T01:59:59;12.77;;;9.77;;
19231;SDS011;9750;48.730;10.294;2022-12-05T02:02:31;13.87;;;9.47;;
19231;SDS011;9750;48.730;10.294;2022-12-05T02:05:00;13.83;;;9.80;;
19231;SDS011;9750;48.730;10.294;2022-12-05T02:07:32;18.67;;;11.37;;
19231;SDS011;9750;48.730;10.294;2022-12-05T02:10:03;20.40;;;12.17;;
19231;SDS011;9750;48.730;10.294;2022-12-05T02:12:32;17.03;;;11.07;;
19231;SDS011;9750;48.730;10.294;2022-12-05T02:15:04;13.23;;;9.33;;
19231;SDS011;9750;48.730;10.294;2022-12-05T02:17:41;17.60;;;11.67;;
19231;SDS011;9750;48.730;10.294;2022-12-05T02:20:29;17.70;;;11.20;;
19231;SDS011;9750;48.730;10.294;2022-12-05T02:23:19;23.90;;;12.53;;
19231;SDS011;9750;48.730;10.294;2022-12-05T02:29:22;21.23;;;12.57;;
19231;SDS011;9750;48.730;10.294;2022-12-05T02:32:18;21.50;;;13.13;;
19231;SDS011;9750;48.730;10.294;2022-12-05T02:34:56;17.07;;;11.50;;
19231;SDS011;9750;48.730;10.294;2022-12-05T02:37:31;16.23;;;10.80;;
19231;SDS011;9750;48.730;10.294;2022-12-05T02:40:08;21.60;;;12.57;;
19231;SDS011;9750;48.730;10.294;2022-12-05T02:42:41;16.93;;;11.00;;
19231;SDS011;9750;48.730;10.294;2022-12-05T02:45:13;20.63;;;13.43;;
19231;SDS011;9750;48.730;10.294;2022-12-05T02:47:44;18.40;;;12.50;;
19231;SDS011;9750;48.730;10.294;2022-12-05T02:50:14;27.63;;;14.57;;
19231;SDS011;9750;48.730;10.294;2022-12-05T02:52:46;19.63;;;12.80;;
19231;SDS011;9750;48.730;10.294;2022-12-05T02:55:16;22.53;;;14.00;;
19231;SDS011;9750;48.730;10.294;2022-12-05T02:57:46;19.37;;;13.30;;
19231;SDS011;9750;48.730;10.294;2022-12-05T03:00:18;36.33;;;15.43;;
19231;SDS011;9750;48.730;10.294;2022-12-05T03:02:47;21.33;;;13.60;;
19231;SDS011;9750;48.730;10.294;2022-12-05T03:05:21;18.10;;;11.77;;
19231;SDS011;9750;48.730;10.294;2022-12-05T03:07:57;22.47;;;13.77;;
19231;SDS011;9750;48.730;10.294;2022-12-05T03:10:28;18.97;;;12.47;;
19231;SDS011;9750;48.730;10.294;2022-12-05T03:13:01;20.20;;;13.07;;
19231;SDS011;9750;48.730;10.294;2022-12-05T03:15:33;25.43;;;13.13;;
19231;SDS011;9750;48.730;10.294;2022-12-05T03:18:07;17.60;;;12.03;;
19231;SDS011;9750;48.730;10.294;2022-12-05T03:20:41;20.00;;;12.77;;
19231;SDS011;9750;48.730;10.294;2022-12-05T03:23:11;20.03;;;13.63;;
19231;SDS011;9750;48.730;10.294;2022-12-05T03:25:44;20.43;;;12.60;;
19231;SDS011;9750;48.730;10.294;2022-12-05T03:28:19;18.50;;;12.50;;
19231;SDS011;9750;48.730;10.294;2022-12-05T03:30:51;18.67;;;12.40;;
19231;SDS011;9750;48.730;10.294;2022-12-05T03:33:23;16.03;;;11.40;;
19231;SDS011;9750;48.730;10.294;2022-12-05T03:35:57;18.73;;;11.83;;
19231;SDS011;9750;48.730;10.294;2022-12-05T03:38:30;19.77;;;12.47;;
19231;SDS011;9750;48.730;10.294;2022-12-05T03:41:04;17.13;;;11.37;;
19231;SDS011;9750;48.730;10.294;2022-12-05T03:43:37;15.37;;;11.03;;
19231;SDS011;9750;48.730;10.294;2022-12-05T03:46:11;14.23;;;10.30;;
19231;SDS011;9750;48.730;10.294;2022-12-05T03:48:46;15.33;;;10.70;;
19231;SDS011;9750;48.730;10.294;2022-12-05T03:51:19;15.83;;;10.90;;
19231;SDS011;9750;48.730;10.294;2022-12-05T03:53:51;13.93;;;10.20;;
19231;SDS011;9750;48.730;10.294;2022-12-05T03:56:23;14.60;;;10.00;;
19231;SDS011;9750;48.730;10.294;2022-12-05T03:58:56;13.00;;;9.10;;
19231;SDS011;9750;48.730;10.294;2022-12-05T04:01:28;14.77;;;10.10;;
19231;SDS011;9750;48.730;10.294;2022-12-05T04:03:59;12.63;;;9.30;;
19231;SDS011;9750;48.730;10.294;2022-12-05T04:06:29;13.17;;;10.17;;
19231;SDS011;9750;48.730;10.294;2022-12-05T04:09:00;13.63;;;9.50;;
19231;SDS011;9750;48.730;10.294;2022-12-05T04:11:32;13.50;;;10.67;;
19231;SDS011;9750;48.730;10.294;2022-12-05T04:14:03;11.80;;;8.77;;
19231;SDS011;9750;48.730;10.294;2022-12-05T04:16:35;14.23;;;10.00;;
19231;SDS011;9750;48.730;10.294;2022-12-05T04:19:30;12.47;;;9.37;;
19231;SDS011;9750;48.730;10.294;2022-12-05T04:22:15;10.73;;;8.73;;
19231;SDS011;9750;48.730;10.294;2022-12-05T04:24:43;14.80;;;10.07;;
19231;SDS011;9750;48.730;10.294;2022-12-05T04:27:30;14.80;;;10.80;;
19231;SDS011;9750;48.730;10.294;2022-12-05T04:30:05;13.20;;;9.47;;
19231;SDS011;9750;48.730;10.294;2022-12-05T04:32:36;15.80;;;10.30;;
19231;SDS011;9750;48.730;10.294;2022-12-05T04:35:12;13.90;;;10.30;;
19231;SDS011;9750;48.730;10.294;2022-12-05T04:37:44;15.93;;;10.80;;
19231;SDS011;9750;48.730;10.294;2022-12-05T04:40:17;16.83;;;11.20;;
19231;SDS011;9750;48.730;10.294;2022-12-05T04:42:48;15.27;;;10.30;;
19231;SDS011;9750;48.730;10.294;2022-12-05T04:45:19;14.23;;;10.80;;
19231;SDS011;9750;48.730;10.294;2022-12-05T04:47:50;15.60;;;10.67;;
19231;SDS011;9750;48.730;10.294;2022-12-05T04:50:23;12.63;;;9.63;;
19231;SDS011;9750;48.730;10.294;2022-12-05T04:52:55;16.23;;;10.97;;
19231;SDS011;9750;48.730;10.294;2022-12-05T04:55:24;15.63;;;10.83;;
19231;SDS011;9750;48.730;10.294;2022-12-05T04:57:58;16.30;;;10.97;;
19231;SDS011;9750;48.730;10.294;2022-12-05T05:00:30;15.63;;;10.40;;
19231;SDS011;9750;48.730;10.294;2022-12-05T05:03:03;17.67;;;12.17;;
19231;SDS011;9750;48.730;10.294;2022-12-05T05:05:35;17.47;;;11.50;;
19231;SDS011;9750;48.730;10.294;2022-12-05T05:08:04;15.00;;;10.67;;
19231;SDS011;9750;48.730;10.294;2022-12-05T05:10:44;17.50;;;11.63;;
19231;SDS011;9750;48.730;10.294;2022-12-05T05:13:18;17.70;;;11.60;;
19231;SDS011;9750;48.730;10.294;2022-12-05T05:15:45;16.13;;;10.83;;
19231;SDS011;9750;48.730;10.294;2022-12-05T05:18:12;18.10;;;11.40;;
19231;SDS011;9750;48.730;10.294;2022-12-05T05:20:41;18.30;;;11.67;;
19231;SDS011;9750;48.730;10.294;2022-12-05T05:23:08;14.60;;;10.60;;
19231;SDS011;9750;48.730;10.294;2022-12-05T05:25:36;16.07;;;10.70;;
19231;SDS011;9750;48.730;10.294;2022-12-05T05:28:03;17.30;;;11.40;;
19231;SDS011;9750;48.730;10.294;2022-12-05T05:30:31;16.43;;;11.13;;
19231;SDS011;9750;48.730;10.294;2022-12-05T05:32:58;15.80;;;10.77;;
19231;SDS011;9750;48.730;10.294;2022-12-05T05:35:26;15.93;;;10.83;;
19231;SDS011;9750;48.730;10.294;2022-12-05T05:37:55;19.17;;;12.37;;
19231;SDS011;9750;48.730;10.294;2022-12-05T05:40:23;18.30;;;11.87;;
19231;SDS011;9750;48.730;10.294;2022-12-05T05:42:50;17.87;;;11.90;;
19231;SDS011;9750;48.730;10.294;2022-12-05T05:45:18;21.27;;;11.93;;
19231;SDS011;9750;48.730;10.294;2022-12-05T05:47:47;20.93;;;12.87;;
19231;SDS011;9750;48.730;10.294;2022-12-05T05:50:14;26.17;;;14.03;;
19231;SDS011;9750;48.730;10.294;2022-12-05T05:52:42;23.90;;;14.83;;
19231;SDS011;9750;48.730;10.294;2022-12-05T05:55:11;26.87;;;14.37;;
19231;SDS011;9750;48.730;10.294;2022-12-05T05:57:38;25.80;;;15.10;;
19231;SDS011;9750;48.730;10.294;2022-12-05T06:00:06;24.47;;;15.00;;
19231;SDS011;9750;48.730;10.294;2022-12-05T06:02:35;25.03;;;14.03;;
19231;SDS011;9750;48.730;10.294;2022-12-05T06:05:02;23.67;;;14.53;;
19231;SDS011;9750;48.730;10.294;2022-12-05T06:07:30;22.83;;;13.77;;
19231;SDS011;9750;48.730;10.294;2022-12-05T06:09:58;21.80;;;13.93;;
19231;SDS011;9750;48.730;10.294;2022-12-05T06:12:27;19.53;;;12.93;;
19231;SDS011;9750;48.730;10.294;2022-12-05T06:14:54;22.77;;;14.17;;
19231;SDS011;9750;48.730;10.294;2022-12-05T06:17:21;28.43;;;16.57;;
19231;SDS011;9750;48.730;10.294;2022-12-05T06:19:48;29.70;;;16.40;;
19231;SDS011;9750;48.730;10.294;2022-12-05T06:22:16;25.37;;;15.60;;
19231;SDS011;9750;48.730;10.294;2022-12-05T06:24:43;28.00;;;16.30;;
19231;SDS011;9750;48.730;10.294;2022-12-05T06:27:11;23.63;;;13.90;;
19231;SDS011;9750;48.730;10.294;2022-12-05T06:29:40;23.53;;;14.43;;
19231;SDS011;9750;48.730;10.294;2022-12-05T06:32:07;22.60;;;14.03;;
19231;SDS011;9750;48.730;10.294;2022-12-05T06:34:35;22.63;;;14.50;;
19231;SDS011;9750;48.730;10.294;2022-12-05T06:37:02;22.80;;;13.87;;
19231;SDS011;9750;48.730;10.294;2022-12-05T06:39:29;21.57;;;15.50;;
19231;SDS011;9750;48.730;10.294;2022-12-05T06:41:57;21.90;;;14.27;;
19231;SDS011;9750;48.730;10.294;2022-12-05T06:44:24;28.50;;;16.97;;
19231;SDS011;9750;48.730;10.294;2022-12-05T06:46:54;25.53;;;15.27;;
19231;SDS011;9750;48.730;10.294;2022-12-05T06:49:22;26.70;;;15.90;;
19231;SDS011;9750;48.730;10.294;2022-12-05T06:51:56;22.90;;;13.70;;
19231;SDS011;9750;48.730;10.294;2022-12-05T06:54:23;24.97;;;15.63;;
19231;SDS011;9750;48.730;10.294;2022-12-05T06:56:51;25.20;;;15.00;;
19231;SDS011;9750;48.730;10.294;2022-12-05T06:59:18;25.80;;;16.37;;
19231;SDS011;9750;48.730;10.294;2022-12-05T07:01:45;30.23;;;16.90;;
19231;SDS011;9750;48.730;10.294;2022-12-05T07:04:20;27.43;;;16.37;;
19231;SDS011;9750;48.730;10.294;2022-12-05T07:06:49;29.60;;;17.90;;
19231;SDS011;9750;48.730;10.294;2022-12-05T07:09:18;25.90;;;15.67;;
19231;SDS011;9750;48.730;10.294;2022-12-05T07:11:47;22.93;;;16.20;;
19231;SDS011;9750;48.730;10.294;2022-12-05T07:14:14;25.50;;;16.43;;
19231;SDS011;9750;48.730;10.294;2022-12-05T07:16:42;31.33;;;19.43;;
19231;SDS011;9750;48.730;10.294;2022-12-05T07:19:10;24.93;;;15.93;;
19231;SDS011;9750;48.730;10.294;2022-12-05T07:21:38;28.03;;;16.77;;
19231;SDS011;9750;48.730;10.294;2022-12-05T07:24:06;29.50;;;17.97;;
19231;SDS011;9750;48.730;10.294;2022-12-05T07:26:33;28.83;;;17.20;;
19231;SDS011;9750;48.730;10.294;2022-12-05T07:29:00;30.23;;;17.57;;
19231;SDS011;9750;48.730;10.294;2022-12-05T07:31:28;24.37;;;15.47;;
19231;SDS011;9750;48.730;10.294;2022-12-05T07:33:58;25.97;;;16.43;;
19231;SDS011;9750;48.730;10.294;2022-12-05T07:36:25;32.07;;;17.27;;
19231;SDS011;9750;48.730;10.294;2022-12-05T07:38:54;30.10;;;17.40;;
19231;SDS011;9750;48.730;10.294;2022-12-05T07:41:23;27.00;;;18.13;;
19231;SDS011;9750;48.730;10.294;2022-12-05T07:43:52;25.53;;;16.63;;
19231;SDS011;9750;48.730;10.294;2022-12-05T07:46:20;26.37;;;17.13;;
19231;SDS011;9750;48.730;10.294;2022-12-05T07:48:48;27.13;;;17.37;;
19231;SDS011;9750;48.730;10.294;2022-12-05T07:51:16;27.47;;;17.20;;
19231;SDS011;9750;48.730;10.294;2022-12-05T07:53:44;21.33;;;15.10;;
19231;SDS011;9750;48.730;10.294;2022-12-05T07:56:13;25.17;;;17.20;;
19231;SDS011;9750;48.730;10.294;2022-12-05T07:58:42;34.37;;;19.00;;
19231;SDS011;9750;48.730;10.294;2022-12-05T08:01:11;25.67;;;16.93;;
19231;SDS011;9750;48.730;10.294;2022-12-05T08:03:40;29.00;;;17.20;;
19231;SDS011;9750;48.730;10.294;2022-12-05T08:06:08;29.47;;;17.50;;
19231;SDS011;9750;48.730;10.294;2022-12-05T08:08:37;22.23;;;15.60;;
19231;SDS011;9750;48.730;10.294;2022-12-05T08:11:05;28.87;;;17.37;;
19231;SDS011;9750;48.730;10.294;2022-12-05T08:13:35;29.70;;;17.37;;
19231;SDS011;9750;48.730;10.294;2022-12-05T08:16:04;26.17;;;17.17;;
19231;SDS011;9750;48.730;10.294;2022-12-05T08:18:33;27.93;;;17.40;;
19231;SDS011;9750;48.730;10.294;2022-12-05T08:21:00;29.17;;;17.97;;
19231;SDS011;9750;48.730;10.294;2022-12-05T08:23:29;27.40;;;17.37;;
19231;SDS011;9750;48.730;10.294;2022-12-05T08:25:59;28.37;;;17.30;;
19231;SDS011;9750;48.730;10.294;2022-12-05T08:28:28;26.13;;;16.10;;
19231;SDS011;9750;48.730;10.294;2022-12-05T08:30:57;31.83;;;19.03;;
19231;SDS011;9750;48.730;10.294;2022-12-05T08:33:29;26.00;;;16.73;;
19231;SDS011;9750;48.730;10.294;2022-12-05T08:35:56;29.00;;;18.47;;
19231;SDS011;9750;48.730;10.294;2022-12-05T08:41:18;24.87;;;16.63;;
19231;SDS011;9750;48.730;10.294;2022-12-05T08:43:45;30.83;;;18.07;;
19231;SDS011;9750;48.730;10.294;2022-12-05T08:46:14;26.90;;;17.10;;
19231;SDS011;9750;48.730;10.294;2022-12-05T08:48:41;26.00;;;16.77;;
19231;SDS011;9750;48.730;10.294;2022-12-05T08:51:09;27.50;;;17.27;;
19231;SDS011;9750;48.730;10.294;2022-12-05T08:53:38;21.50;;;15.80;;
19231;SDS011;9750;48.730;10.294;2022-12-05T08:56:06;28.97;;;17.10;;
19231;SDS011;9750;48.730;10.294;2022-12-05T08:58:36;24.20;;;16.03;;
19231;SDS011;9750;48.730;10.294;2022-12-05T09:01:03;25.37;;;15.70;;
19231;SDS011;9750;48.730;10.294;2022-12-05T09:03:47;22.63;;;14.77;;
19231;SDS011;9750;48.730;10.294;2022-12-05T09:06:15;21.83;;;15.07;;
19231;SDS011;9750;48.730;10.294;2022-12-05T09:08:44;23.30;;;15.00;;
19231;SDS011;9750;48.730;10.294;2022-12-05T09:11:12;23.80;;;16.17;;
19231;SDS011;9750;48.730;10.294;2022-12-05T09:13:52;22.90;;;15.20;;
19231;SDS011;9750;48.730;10.294;2022-12-05T09:16:21;24.60;;;16.87;;
19231;SDS011;9750;48.730;10.294;2022-12-05T09:18:51;25.27;;;15.83;;
19231;SDS011;9750;48.730;10.294;2022-12-05T09:21:19;28.67;;;17.03;;
19231;SDS011;9750;48.730;10.294;2022-12-05T09:23:47;26.47;;;18.23;;
19231;SDS011;9750;48.730;10.294;2022-12-05T09:26:16;26.20;;;17.60;;
19231;SDS011;9750;48.730;10.294;2022-12-05T09:28:44;35.80;;;21.03;;
19231;SDS011;9750;48.730;10.294;2022-12-05T09:31:12;42.70;;;30.67;;
19231;SDS011;9750;48.730;10.294;2022-12-05T09:33:41;26.83;;;19.53;;
19231;SDS011;9750;48.730;10.294;2022-12-05T09:36:11;22.53;;;15.17;;
19231;SDS011;9750;48.730;10.294;2022-12-05T09:38:40;21.33;;;14.10;;
19231;SDS011;9750;48.730;10.294;2022-12-05T09:41:11;20.13;;;14.10;;
19231;SDS011;9750;48.730;10.294;2022-12-05T09:47:10;20.07;;;14.07;;
19231;SDS011;9750;48.730;10.294;2022-12-05T09:49:46;20.43;;;14.00;;
19231;SDS011;9750;48.730;10.294;2022-12-05T09:55:13;21.23;;;13.33;;
19231;SDS011;9750;48.730;10.294;2022-12-05T09:57:44;20.93;;;14.67;;
19231;SDS011;9750;48.730;10.294;2022-12-05T10:00:17;20.33;;;14.10;;
19231;SDS011;9750;48.730;10.294;2022-12-05T10:02:46;18.63;;;12.80;;
19231;SDS011;9750;48.730;10.294;2022-12-05T10:05:24;21.60;;;13.17;;
19231;SDS011;9750;48.730;10.294;2022-12-05T10:08:00;21.90;;;15.37;;
19231;SDS011;9750;48.730;10.294;2022-12-05T10:10:39;19.00;;;13.90;;
19231;SDS011;9750;48.730;10.294;2022-12-05T10:16:33;18.40;;;13.30;;
19231;SDS011;9750;48.730;10.294;2022-12-05T10:19:05;18.30;;;12.70;;
19231;SDS011;9750;48.730;10.294;2022-12-05T10:21:38;14.53;;;11.53;;
19231;SDS011;9750;48.730;10.294;2022-12-05T10:24:15;18.23;;;12.47;;
19231;SDS011;9750;48.730;10.294;2022-12-05T10:26:46;19.37;;;12.50;;
19231;SDS011;9750;48.730;10.294;2022-12-05T10:29:21;17.10;;;11.80;;
19231;SDS011;9750;48.730;10.294;2022-12-05T10:31:54;18.23;;;12.43;;
19231;SDS011;9750;48.730;10.294;2022-12-05T10:34:30;17.23;;;12.33;;
19231;SDS011;9750;48.730;10.294;2022-12-05T10:37:03;16.07;;;11.53;;
19231;SDS011;9750;48.730;10.294;2022-12-05T10:39:37;20.60;;;15.90;;
19231;SDS011;9750;48.730;10.294;2022-12-05T10:42:04;18.97;;;14.47;;
19231;SDS011;9750;48.730;10.294;2022-12-05T10:44:36;15.50;;;11.97;;
19231;SDS011;9750;48.730;10.294;2022-12-05T10:47:03;14.53;;;11.83;;
19231;SDS011;9750;48.730;10.294;2022-12-05T10:49:30;15.73;;;11.87;;
19231;SDS011;9750;48.730;10.294;2022-12-05T10:51:59;12.00;;;9.43;;
19231;SDS011;9750;48.730;10.294;2022-12-05T10:54:28;16.00;;;11.33;;
19231;SDS011;9750;48.730;10.294;2022-12-05T10:56:58;13.80;;;10.57;;
19231;SDS011;9750;48.730;10.294;2022-12-05T10:59:41;13.30;;;9.27;;
19231;SDS011;9750;48.730;10.294;2022-12-05T11:02:16;12.70;;;10.50;;
19231;SDS011;9750;48.730;10.294;2022-12-05T11:04:48;14.00;;;10.97;;
19231;SDS011;9750;48.730;10.294;2022-12-05T11:07:23;13.73;;;10.43;;
19231;SDS011;9750;48.730;10.294;2022-12-05T11:09:54;12.70;;;10.17;;
19231;SDS011;9750;48.730;10.294;2022-12-05T11:12:23;13.40;;;10.60;;
19231;SDS011;9750;48.730;10.294;2022-12-05T11:14:56;13.30;;;10.47;;
19231;SDS011;9750;48.730;10.294;2022-12-05T11:17:26;12.93;;;9.83;;
19231;SDS011;9750;48.730;10.294;2022-12-05T11:19:56;12.50;;;10.27;;
19231;SDS011;9750;48.730;10.294;2022-12-05T11:22:34;12.73;;;9.63;;
19231;SDS011;9750;48.730;10.294;2022-12-05T11:25:20;14.17;;;10.80;;
19231;SDS011;9750;48.730;10.294;2022-12-05T11:27:51;14.50;;;10.07;;
19231;SDS011;9750;48.730;10.294;2022-12-05T11:30:19;14.00;;;10.80;;
19231;SDS011;9750;48.730;10.294;2022-12-05T11:32:48;12.63;;;10.17;;
19231;SDS011;9750;48.730;10.294;2022-12-05T11:35:19;14.97;;;10.77;;
19231;SDS011;9750;48.730;10.294;2022-12-05T11:37:51;14.77;;;10.87;;
19231;SDS011;9750;48.730;10.294;2022-12-05T11:40:26;13.87;;;10.40;;
19231;SDS011;9750;48.730;10.294;2022-12-05T11:46:03;12.37;;;10.33;;
19231;SDS011;9750;48.730;10.294;2022-12-05T11:48:44;14.33;;;10.87;;
19231;SDS011;9750;48.730;10.294;2022-12-05T11:51:29;16.17;;;11.87;;
19231;SDS011;9750;48.730;10.294;2022-12-05T11:54:11;12.40;;;10.20;;
19231;SDS011;9750;48.730;10.294;2022-12-05T11:57:15;13.97;;;11.27;;
19231;SDS011;9750;48.730;10.294;2022-12-05T11:59:58;14.27;;;10.77;;
19231;SDS011;9750;48.730;10.294;2022-12-05T12:02:36;13.57;;;10.27;;
19231;SDS011;9750;48.730;10.294;2022-12-05T12:05:21;12.13;;;10.43;;
19231;SDS011;9750;48.730;10.294;2022-12-05T12:08:00;14.40;;;10.87;;
19231;SDS011;9750;48.730;10.294;2022-12-05T12:10:40;11.70;;;9.77;;
19231;SDS011;9750;48.730;10.294;2022-12-05T12:13:20;14.17;;;10.90;;
19231;SDS011;9750;48.730;10.294;2022-12-05T12:16:02;14.23;;;10.90;;
19231;SDS011;9750;48.730;10.294;2022-12-05T12:18:51;15.23;;;11.40;;
19231;SDS011;9750;48.730;10.294;2022-12-05T12:21:40;12.57;;;10.20;;
19231;SDS011;9750;48.730;10.294;2022-12-05T12:24:23;15.33;;;10.30;;
19231;SDS011;9750;48.730;10.294;2022-12-05T12:27:03;13.30;;;10.13;;
19231;SDS011;9750;48.730;10.294;2022-12-05T12:29:40;13.07;;;10.20;;
19231;SDS011;9750;48.730;10.294;2022-12-05T12:32:22;11.43;;;9.67;;
19231;SDS011;9750;48.730;10.294;2022-12-05T12:35:00;12.63;;;10.17;;
19231;SDS011;9750;48.730;10.294;2022-12-05T12:37:40;13.53;;;10.57;;
19231;SDS011;9750;48.730;10.294;2022-12-05T12:40:15;12.63;;;10.20;;
19231;SDS011;9750;48.730;10.294;2022-12-05T12:42:52;12.90;;;9.83;;
19231;SDS011;9750;48.730;10.294;2022-12-05T12:48:27;14.63;;;10.57;;
19231;SDS011;9750;48.730;10.294;2022-12-05T12:51:03;16.43;;;11.20;;
19231;SDS011;9750;48.730;10.294;2022-12-05T12:53:46;15.27;;;10.47;;
19231;SDS011;9750;48.730;10.294;2022-12-05T12:56:36;13.83;;;10.63;;
19231;SDS011;9750;48.730;10.294;2022-12-05T12:59:15;14.63;;;10.87;;
19231;SDS011;9750;48.730;10.294;2022-12-05T13:02:08;14.57;;;10.83;;
19231;SDS011;9750;48.730;10.294;2022-12-05T13:04:43;19.57;;;14.00;;
19231;SDS011;9750;48.730;10.294;2022-12-05T13:07:16;16.23;;;12.07;;
19231;SDS011;9750;48.730;10.294;2022-12-05T13:09:50;13.13;;;11.10;;
19231;SDS011;9750;48.730;10.294;2022-12-05T13:12:23;15.33;;;12.33;;
19231;SDS011;9750;48.730;10.294;2022-12-05T13:14:55;18.47;;;13.17;;
19231;SDS011;9750;48.730;10.294;2022-12-05T13:17:27;21.60;;;15.80;;
19231;SDS011;9750;48.730;10.294;2022-12-05T13:19:57;20.03;;;14.23;;
19231;SDS011;9750;48.730;10.294;2022-12-05T13:22:26;20.23;;;14.60;;
19231;SDS011;9750;48.730;10.294;2022-12-05T13:24:54;14.47;;;11.67;;
19231;SDS011;9750;48.730;10.294;2022-12-05T13:27:22;14.03;;;11.83;;
19231;SDS011;9750;48.730;10.294;2022-12-05T13:29:53;17.83;;;12.70;;
19231;SDS011;9750;48.730;10.294;2022-12-05T13:32:24;14.50;;;11.60;;
19231;SDS011;9750;48.730;10.294;2022-12-05T13:34:55;19.13;;;16.40;;
19231;SDS011;9750;48.730;10.294;2022-12-05T13:37:25;16.33;;;12.93;;
19231;SDS011;9750;48.730;10.294;2022-12-05T13:40:20;17.33;;;13.37;;
19231;SDS011;9750;48.730;10.294;2022-12-05T13:43:12;17.33;;;12.87;;
19231;SDS011;9750;48.730;10.294;2022-12-05T13:45:42;20.23;;;14.03;;
19231;SDS011;9750;48.730;10.294;2022-12-05T13:48:26;19.47;;;15.17;;
19231;SDS011;9750;48.730;10.294;2022-12-05T13:50:56;14.37;;;10.87;;
19231;SDS011;9750;48.730;10.294;2022-12-05T13:53:28;14.77;;;12.67;;
19231;SDS011;9750;48.730;10.294;2022-12-05T13:56:03;16.50;;;13.60;;
19231;SDS011;9750;48.730;10.294;2022-12-05T13:58:36;15.33;;;12.43;;
19231;SDS011;9750;48.730;10.294;2022-12-05T14:04:22;15.40;;;11.97;;
19231;SDS011;9750;48.730;10.294;2022-12-05T14:07:07;15.70;;;12.60;;
19231;SDS011;9750;48.730;10.294;2022-12-05T14:09:49;13.60;;;11.37;;
19231;SDS011;9750;48.730;10.294;2022-12-05T14:15:23;19.23;;;14.90;;
19231;SDS011;9750;48.730;10.294;2022-12-05T14:18:03;15.67;;;12.27;;
19231;SDS011;9750;48.730;10.294;2022-12-05T14:20:53;17.20;;;13.80;;
19231;SDS011;9750;48.730;10.294;2022-12-05T14:26:30;13.80;;;10.60;;
19231;SDS011;9750;48.730;10.294;2022-12-05T14:29:15;15.07;;;11.03;;
19231;SDS011;9750;48.730;10.294;2022-12-05T14:31:53;13.57;;;10.53;;
19231;SDS011;9750;48.730;10.294;2022-12-05T14:34:32;12.90;;;9.97;;
19231;SDS011;9750;48.730;10.294;2022-12-05T14:37:03;27.37;;;21.20;;
19231;SDS011;9750;48.730;10.294;2022-12-05T14:39:37;17.80;;;14.70;;
19231;SDS011;9750;48.730;10.294;2022-12-05T14:42:19;13.87;;;10.67;;
19231;SDS011;9750;48.730;10.294;2022-12-05T14:44:52;12.33;;;9.87;;
19231;SDS011;9750;48.730;10.294;2022-12-05T14:47:23;16.30;;;14.33;;
19231;SDS011;9750;48.730;10.294;2022-12-05T14:49:54;17.27;;;14.50;;
19231;SDS011;9750;48.730;10.294;2022-12-05T14:52:27;16.37;;;12.30;;
19231;SDS011;9750;48.730;10.294;2022-12-05T14:54:59;13.93;;;10.53;;
19231;SDS011;9750;48.730;10.294;2022-12-05T14:57:30;13.07;;;11.37;;
19231;SDS011;9750;48.730;10.294;2022-12-05T15:00:03;15.30;;;10.53;;
19231;SDS011;9750;48.730;10.294;2022-12-05T15:02:32;12.50;;;9.87;;
19231;SDS011;9750;48.730;10.294;2022-12-05T15:05:05;13.53;;;10.00;;
19231;SDS011;9750;48.730;10.294;2022-12-05T15:07:48;13.37;;;10.10;;
19231;SDS011;9750;48.730;10.294;2022-12-05T15:10:18;11.87;;;9.30;;
19231;SDS011;9750;48.730;10.294;2022-12-05T15:12:48;11.73;;;8.80;;
19231;SDS011;9750;48.730;10.294;2022-12-05T15:15:24;13.27;;;9.40;;
19231;SDS011;9750;48.730;10.294;2022-12-05T15:18:02;13.20;;;9.93;;
19231;SDS011;9750;48.730;10.294;2022-12-05T15:20:37;10.93;;;9.57;;
19231;SDS011;9750;48.730;10.294;2022-12-05T15:26:24;14.03;;;10.27;;
19231;SDS011;9750;48.730;10.294;2022-12-05T15:28:58;12.73;;;10.40;;
19231;SDS011;9750;48.730;10.294;2022-12-05T15:31:28;13.17;;;10.97;;
19231;SDS011;9750;48.730;10.294;2022-12-05T15:33:59;13.13;;;10.77;;
19231;SDS011;9750;48.730;10.294;2022-12-05T15:36:32;11.03;;;9.70;;
19231;SDS011;9750;48.730;10.294;2022-12-05T15:39:18;8.70;;;7.80;;